TAF KHDC
KHDC 090520Z 0906/1006 01007KT P6SM SKC FM091300 VRB03KT 6SM BR BKN015 FM091500 VRB04KT 6SM BR OVC008 FM092100 17006KT P6SM VCSH OVC015 FM092200 16005KT P6SM VCSH OVC008 FM100200 VRB04KT P6SM OVC015 AMD NOT SKED=
METAR KHDC
WC KHDC
WS KHDC
WV KHDC